sensor_id;sensor_type;location;lat;lon;timestamp;P1;durP1;ratioP1;P2;durP2;ratioP2
32333;SDS011;18810;53.040;8.850;2023-04-23T00:00:15;17.50;;;14.32;;
32333;SDS011;18810;53.040;8.850;2023-04-23T00:02:44;19.98;;;15.90;;
32333;SDS011;18810;53.040;8.850;2023-04-23T00:05:14;20.10;;;15.73;;
32333;SDS011;18810;53.040;8.850;2023-04-23T00:07:40;22.10;;;17.63;;
32333;SDS011;18810;53.040;8.850;2023-04-23T00:10:07;20.77;;;17.20;;
32333;SDS011;18810;53.040;8.850;2023-04-23T00:12:33;22.55;;;18.38;;
32333;SDS011;18810;53.040;8.850;2023-04-23T00:15:00;22.02;;;17.73;;
32333;SDS011;18810;53.040;8.850;2023-04-23T00:17:28;24.13;;;18.05;;
32333;SDS011;18810;53.040;8.850;2023-04-23T00:19:53;22.50;;;17.55;;
32333;SDS011;18810;53.040;8.850;2023-04-23T00:22:19;20.40;;;16.70;;
32333;SDS011;18810;53.040;8.850;2023-04-23T00:24:46;20.80;;;16.58;;
32333;SDS011;18810;53.040;8.850;2023-04-23T00:27:12;21.90;;;16.17;;
32333;SDS011;18810;53.040;8.850;2023-04-23T00:29:37;23.17;;;18.63;;
32333;SDS011;18810;53.040;8.850;2023-04-23T00:32:03;25.20;;;18.55;;
32333;SDS011;18810;53.040;8.850;2023-04-23T00:34:29;23.83;;;18.67;;
32333;SDS011;18810;53.040;8.850;2023-04-23T00:36:55;26.10;;;19.88;;
32333;SDS011;18810;53.040;8.850;2023-04-23T00:39:20;25.13;;;20.02;;
32333;SDS011;18810;53.040;8.850;2023-04-23T00:41:46;27.85;;;21.35;;
32333;SDS011;18810;53.040;8.850;2023-04-23T00:44:13;26.25;;;20.83;;
32333;SDS011;18810;53.040;8.850;2023-04-23T00:46:38;29.75;;;22.08;;
32333;SDS011;18810;53.040;8.850;2023-04-23T00:49:04;28.20;;;21.67;;
32333;SDS011;18810;53.040;8.850;2023-04-23T00:51:30;28.27;;;21.02;;
32333;SDS011;18810;53.040;8.850;2023-04-23T00:53:56;28.25;;;21.60;;
32333;SDS011;18810;53.040;8.850;2023-04-23T00:56:22;31.48;;;22.10;;
32333;SDS011;18810;53.040;8.850;2023-04-23T00:58:52;29.23;;;21.90;;
32333;SDS011;18810;53.040;8.850;2023-04-23T01:01:21;33.03;;;23.90;;
32333;SDS011;18810;53.040;8.850;2023-04-23T01:03:48;31.75;;;23.98;;
32333;SDS011;18810;53.040;8.850;2023-04-23T01:06:16;34.03;;;25.02;;
32333;SDS011;18810;53.040;8.850;2023-04-23T01:08:43;36.75;;;25.45;;
32333;SDS011;18810;53.040;8.850;2023-04-23T01:11:10;33.90;;;25.60;;
32333;SDS011;18810;53.040;8.850;2023-04-23T01:13:38;37.17;;;26.15;;
32333;SDS011;18810;53.040;8.850;2023-04-23T01:16:06;39.80;;;27.13;;
32333;SDS011;18810;53.040;8.850;2023-04-23T01:18:32;42.30;;;28.35;;
32333;SDS011;18810;53.040;8.850;2023-04-23T01:20:58;38.33;;;27.13;;
32333;SDS011;18810;53.040;8.850;2023-04-23T01:23:24;41.47;;;28.98;;
32333;SDS011;18810;53.040;8.850;2023-04-23T01:25:51;40.55;;;27.52;;
32333;SDS011;18810;53.040;8.850;2023-04-23T01:28:17;38.63;;;27.40;;
32333;SDS011;18810;53.040;8.850;2023-04-23T01:30:43;39.25;;;26.50;;
32333;SDS011;18810;53.040;8.850;2023-04-23T01:33:10;38.80;;;26.63;;
32333;SDS011;18810;53.040;8.850;2023-04-23T01:35:36;37.65;;;26.10;;
32333;SDS011;18810;53.040;8.850;2023-04-23T01:38:03;35.85;;;24.10;;
32333;SDS011;18810;53.040;8.850;2023-04-23T01:40:30;34.00;;;23.25;;
32333;SDS011;18810;53.040;8.850;2023-04-23T01:42:56;37.90;;;24.67;;
32333;SDS011;18810;53.040;8.850;2023-04-23T01:45:23;38.92;;;24.83;;
32333;SDS011;18810;53.040;8.850;2023-04-23T01:47:48;39.25;;;25.63;;
32333;SDS011;18810;53.040;8.850;2023-04-23T01:50:14;41.35;;;26.63;;
32333;SDS011;18810;53.040;8.850;2023-04-23T01:52:40;42.92;;;27.10;;
32333;SDS011;18810;53.040;8.850;2023-04-23T01:55:07;45.22;;;27.95;;
32333;SDS011;18810;53.040;8.850;2023-04-23T01:57:33;42.72;;;28.15;;
32333;SDS011;18810;53.040;8.850;2023-04-23T02:00:02;43.38;;;28.35;;
32333;SDS011;18810;53.040;8.850;2023-04-23T02:02:32;44.90;;;28.83;;
32333;SDS011;18810;53.040;8.850;2023-04-23T02:05:01;40.97;;;27.25;;
32333;SDS011;18810;53.040;8.850;2023-04-23T02:07:31;44.05;;;27.45;;
32333;SDS011;18810;53.040;8.850;2023-04-23T02:09:58;42.08;;;28.65;;
32333;SDS011;18810;53.040;8.850;2023-04-23T02:12:24;43.33;;;28.20;;
32333;SDS011;18810;53.040;8.850;2023-04-23T02:14:51;45.00;;;27.90;;
32333;SDS011;18810;53.040;8.850;2023-04-23T02:17:18;43.42;;;28.58;;
32333;SDS011;18810;53.040;8.850;2023-04-23T02:19:45;46.08;;;27.98;;
32333;SDS011;18810;53.040;8.850;2023-04-23T02:22:11;48.10;;;28.83;;
32333;SDS011;18810;53.040;8.850;2023-04-23T02:24:37;49.25;;;29.95;;
32333;SDS011;18810;53.040;8.850;2023-04-23T02:27:03;43.53;;;28.92;;
32333;SDS011;18810;53.040;8.850;2023-04-23T02:29:29;45.42;;;29.02;;
32333;SDS011;18810;53.040;8.850;2023-04-23T02:31:54;48.33;;;30.13;;
32333;SDS011;18810;53.040;8.850;2023-04-23T02:34:20;48.35;;;29.00;;
32333;SDS011;18810;53.040;8.850;2023-04-23T02:36:46;44.15;;;27.77;;
32333;SDS011;18810;53.040;8.850;2023-04-23T02:39:11;38.03;;;24.50;;
32333;SDS011;18810;53.040;8.850;2023-04-23T02:41:37;40.00;;;26.23;;
32333;SDS011;18810;53.040;8.850;2023-04-23T02:44:03;37.25;;;23.38;;
32333;SDS011;18810;53.040;8.850;2023-04-23T02:46:28;35.67;;;23.67;;
32333;SDS011;18810;53.040;8.850;2023-04-23T02:48:55;37.00;;;24.88;;
32333;SDS011;18810;53.040;8.850;2023-04-23T02:51:21;34.95;;;23.17;;
32333;SDS011;18810;53.040;8.850;2023-04-23T02:53:47;38.72;;;23.33;;
32333;SDS011;18810;53.040;8.850;2023-04-23T02:56:12;36.00;;;23.35;;
32333;SDS011;18810;53.040;8.850;2023-04-23T02:58:38;38.63;;;24.13;;
32333;SDS011;18810;53.040;8.850;2023-04-23T03:01:04;34.67;;;22.83;;
32333;SDS011;18810;53.040;8.850;2023-04-23T03:03:31;38.22;;;24.63;;
32333;SDS011;18810;53.040;8.850;2023-04-23T03:05:57;38.25;;;25.27;;
32333;SDS011;18810;53.040;8.850;2023-04-23T03:08:24;38.67;;;24.85;;
32333;SDS011;18810;53.040;8.850;2023-04-23T03:10:50;38.80;;;24.67;;
32333;SDS011;18810;53.040;8.850;2023-04-23T03:13:16;37.35;;;23.88;;
32333;SDS011;18810;53.040;8.850;2023-04-23T03:15:42;41.75;;;25.35;;
32333;SDS011;18810;53.040;8.850;2023-04-23T03:18:08;41.00;;;25.05;;
32333;SDS011;18810;53.040;8.850;2023-04-23T03:20:36;42.13;;;25.77;;
32333;SDS011;18810;53.040;8.850;2023-04-23T03:23:02;40.05;;;25.70;;
32333;SDS011;18810;53.040;8.850;2023-04-23T03:25:30;40.40;;;26.15;;
32333;SDS011;18810;53.040;8.850;2023-04-23T03:27:57;40.67;;;25.33;;
32333;SDS011;18810;53.040;8.850;2023-04-23T03:30:22;40.20;;;26.10;;
32333;SDS011;18810;53.040;8.850;2023-04-23T03:32:49;41.22;;;25.95;;
32333;SDS011;18810;53.040;8.850;2023-04-23T03:35:14;43.65;;;26.02;;
32333;SDS011;18810;53.040;8.850;2023-04-23T03:37:40;47.00;;;27.67;;
32333;SDS011;18810;53.040;8.850;2023-04-23T03:40:07;44.63;;;26.70;;
32333;SDS011;18810;53.040;8.850;2023-04-23T03:42:33;40.65;;;26.42;;
32333;SDS011;18810;53.040;8.850;2023-04-23T03:44:59;43.35;;;27.08;;
32333;SDS011;18810;53.040;8.850;2023-04-23T03:47:25;40.67;;;25.73;;
32333;SDS011;18810;53.040;8.850;2023-04-23T03:49:51;42.83;;;25.85;;
32333;SDS011;18810;53.040;8.850;2023-04-23T03:52:17;43.35;;;25.85;;
32333;SDS011;18810;53.040;8.850;2023-04-23T03:54:43;44.25;;;26.73;;
32333;SDS011;18810;53.040;8.850;2023-04-23T03:57:09;39.10;;;25.52;;
32333;SDS011;18810;53.040;8.850;2023-04-23T03:59:38;37.65;;;22.95;;
32333;SDS011;18810;53.040;8.850;2023-04-23T04:02:04;37.90;;;23.67;;
32333;SDS011;18810;53.040;8.850;2023-04-23T04:04:30;36.15;;;22.10;;
32333;SDS011;18810;53.040;8.850;2023-04-23T04:06:56;39.53;;;23.67;;
32333;SDS011;18810;53.040;8.850;2023-04-23T04:09:24;32.63;;;22.20;;
32333;SDS011;18810;53.040;8.850;2023-04-23T04:11:51;36.13;;;24.02;;
32333;SDS011;18810;53.040;8.850;2023-04-23T04:14:18;35.60;;;22.90;;
32333;SDS011;18810;53.040;8.850;2023-04-23T04:16:44;39.90;;;25.20;;
32333;SDS011;18810;53.040;8.850;2023-04-23T04:19:09;42.05;;;26.20;;
32333;SDS011;18810;53.040;8.850;2023-04-23T04:21:35;40.90;;;26.58;;
32333;SDS011;18810;53.040;8.850;2023-04-23T04:24:01;42.35;;;25.45;;
32333;SDS011;18810;53.040;8.850;2023-04-23T04:26:30;43.28;;;27.35;;
32333;SDS011;18810;53.040;8.850;2023-04-23T04:28:58;40.45;;;26.90;;
32333;SDS011;18810;53.040;8.850;2023-04-23T04:31:25;47.40;;;27.67;;
32333;SDS011;18810;53.040;8.850;2023-04-23T04:33:55;43.22;;;25.90;;
32333;SDS011;18810;53.040;8.850;2023-04-23T04:36:22;41.30;;;25.90;;
32333;SDS011;18810;53.040;8.850;2023-04-23T04:38:49;42.13;;;26.73;;
32333;SDS011;18810;53.040;8.850;2023-04-23T04:41:16;42.55;;;26.90;;
32333;SDS011;18810;53.040;8.850;2023-04-23T04:43:44;40.75;;;26.25;;
32333;SDS011;18810;53.040;8.850;2023-04-23T04:46:10;41.90;;;26.02;;
32333;SDS011;18810;53.040;8.850;2023-04-23T04:48:36;43.03;;;27.45;;
32333;SDS011;18810;53.040;8.850;2023-04-23T04:51:02;42.65;;;26.42;;
32333;SDS011;18810;53.040;8.850;2023-04-23T04:53:28;46.70;;;28.80;;
32333;SDS011;18810;53.040;8.850;2023-04-23T04:55:54;45.20;;;28.98;;
32333;SDS011;18810;53.040;8.850;2023-04-23T04:58:20;46.90;;;28.70;;
32333;SDS011;18810;53.040;8.850;2023-04-23T05:00:45;41.85;;;28.10;;
32333;SDS011;18810;53.040;8.850;2023-04-23T05:03:16;48.38;;;29.40;;
32333;SDS011;18810;53.040;8.850;2023-04-23T05:05:45;50.65;;;31.23;;
32333;SDS011;18810;53.040;8.850;2023-04-23T05:08:12;51.03;;;30.48;;
32333;SDS011;18810;53.040;8.850;2023-04-23T05:10:40;48.80;;;30.48;;
32333;SDS011;18810;53.040;8.850;2023-04-23T05:13:06;49.80;;;31.23;;
32333;SDS011;18810;53.040;8.850;2023-04-23T05:15:32;48.05;;;29.60;;
32333;SDS011;18810;53.040;8.850;2023-04-23T05:17:58;50.72;;;30.92;;
32333;SDS011;18810;53.040;8.850;2023-04-23T05:20:24;49.35;;;29.58;;
32333;SDS011;18810;53.040;8.850;2023-04-23T05:22:50;47.47;;;28.63;;
32333;SDS011;18810;53.040;8.850;2023-04-23T05:25:16;45.55;;;28.85;;
32333;SDS011;18810;53.040;8.850;2023-04-23T05:27:42;47.83;;;28.88;;
32333;SDS011;18810;53.040;8.850;2023-04-23T05:30:08;45.15;;;29.23;;
32333;SDS011;18810;53.040;8.850;2023-04-23T05:32:34;46.00;;;29.73;;
32333;SDS011;18810;53.040;8.850;2023-04-23T05:35:01;41.65;;;27.13;;
32333;SDS011;18810;53.040;8.850;2023-04-23T05:37:28;44.03;;;28.92;;
32333;SDS011;18810;53.040;8.850;2023-04-23T05:39:54;48.40;;;29.02;;
32333;SDS011;18810;53.040;8.850;2023-04-23T05:42:21;43.92;;;29.30;;
32333;SDS011;18810;53.040;8.850;2023-04-23T05:44:47;47.63;;;30.73;;
32333;SDS011;18810;53.040;8.850;2023-04-23T05:47:13;45.53;;;29.85;;
32333;SDS011;18810;53.040;8.850;2023-04-23T05:49:39;49.50;;;30.08;;
32333;SDS011;18810;53.040;8.850;2023-04-23T05:52:05;49.70;;;30.00;;
32333;SDS011;18810;53.040;8.850;2023-04-23T05:54:31;43.90;;;29.55;;
32333;SDS011;18810;53.040;8.850;2023-04-23T05:56:56;46.78;;;30.13;;
32333;SDS011;18810;53.040;8.850;2023-04-23T05:59:23;46.38;;;29.75;;
32333;SDS011;18810;53.040;8.850;2023-04-23T06:01:48;44.45;;;28.80;;
32333;SDS011;18810;53.040;8.850;2023-04-23T06:04:15;49.00;;;30.35;;
32333;SDS011;18810;53.040;8.850;2023-04-23T06:06:41;43.95;;;28.45;;
32333;SDS011;18810;53.040;8.850;2023-04-23T06:09:07;45.13;;;28.75;;
32333;SDS011;18810;53.040;8.850;2023-04-23T06:11:33;45.67;;;29.25;;
32333;SDS011;18810;53.040;8.850;2023-04-23T06:14:00;48.38;;;30.65;;
32333;SDS011;18810;53.040;8.850;2023-04-23T06:16:26;48.45;;;29.52;;
32333;SDS011;18810;53.040;8.850;2023-04-23T06:18:52;49.75;;;31.25;;
32333;SDS011;18810;53.040;8.850;2023-04-23T06:21:20;46.22;;;30.08;;
32333;SDS011;18810;53.040;8.850;2023-04-23T06:23:49;49.13;;;31.38;;
32333;SDS011;18810;53.040;8.850;2023-04-23T06:26:15;47.47;;;30.85;;
32333;SDS011;18810;53.040;8.850;2023-04-23T06:28:41;51.85;;;30.58;;
32333;SDS011;18810;53.040;8.850;2023-04-23T06:31:08;51.58;;;32.20;;
32333;SDS011;18810;53.040;8.850;2023-04-23T06:33:34;49.70;;;30.58;;
32333;SDS011;18810;53.040;8.850;2023-04-23T06:36:04;52.78;;;32.28;;
32333;SDS011;18810;53.040;8.850;2023-04-23T06:40:57;52.65;;;30.65;;
32333;SDS011;18810;53.040;8.850;2023-04-23T06:43:26;47.92;;;31.02;;
32333;SDS011;18810;53.040;8.850;2023-04-23T06:45:52;48.47;;;30.50;;
32333;SDS011;18810;53.040;8.850;2023-04-23T06:48:18;50.83;;;31.38;;
32333;SDS011;18810;53.040;8.850;2023-04-23T06:50:46;53.17;;;32.45;;
32333;SDS011;18810;53.040;8.850;2023-04-23T06:53:12;50.78;;;32.28;;
32333;SDS011;18810;53.040;8.850;2023-04-23T06:55:39;51.88;;;32.20;;
32333;SDS011;18810;53.040;8.850;2023-04-23T06:58:04;54.45;;;33.65;;
32333;SDS011;18810;53.040;8.850;2023-04-23T07:00:33;53.00;;;33.63;;
32333;SDS011;18810;53.040;8.850;2023-04-23T07:02:58;51.80;;;33.50;;
32333;SDS011;18810;53.040;8.850;2023-04-23T07:05:24;52.83;;;33.60;;
32333;SDS011;18810;53.040;8.850;2023-04-23T07:07:50;49.10;;;32.38;;
32333;SDS011;18810;53.040;8.850;2023-04-23T07:10:17;53.92;;;33.00;;
32333;SDS011;18810;53.040;8.850;2023-04-23T07:12:43;57.35;;;34.40;;
32333;SDS011;18810;53.040;8.850;2023-04-23T07:15:09;55.13;;;34.90;;
32333;SDS011;18810;53.040;8.850;2023-04-23T07:17:35;53.20;;;33.28;;
32333;SDS011;18810;53.040;8.850;2023-04-23T07:20:01;59.03;;;34.67;;
32333;SDS011;18810;53.040;8.850;2023-04-23T07:22:30;55.10;;;35.38;;
32333;SDS011;18810;53.040;8.850;2023-04-23T07:24:57;54.63;;;33.58;;
32333;SDS011;18810;53.040;8.850;2023-04-23T07:27:23;54.80;;;35.35;;
32333;SDS011;18810;53.040;8.850;2023-04-23T07:29:49;57.75;;;33.60;;
32333;SDS011;18810;53.040;8.850;2023-04-23T07:32:14;55.65;;;33.42;;
32333;SDS011;18810;53.040;8.850;2023-04-23T07:34:40;56.63;;;34.25;;
32333;SDS011;18810;53.040;8.850;2023-04-23T07:37:06;56.50;;;34.88;;
32333;SDS011;18810;53.040;8.850;2023-04-23T07:39:33;58.00;;;36.05;;
32333;SDS011;18810;53.040;8.850;2023-04-23T07:41:59;58.72;;;35.90;;
32333;SDS011;18810;53.040;8.850;2023-04-23T07:44:26;59.38;;;37.45;;
32333;SDS011;18810;53.040;8.850;2023-04-23T07:46:52;55.30;;;33.40;;
32333;SDS011;18810;53.040;8.850;2023-04-23T07:49:17;55.50;;;35.85;;
32333;SDS011;18810;53.040;8.850;2023-04-23T07:51:43;57.03;;;35.20;;
32333;SDS011;18810;53.040;8.850;2023-04-23T07:54:09;53.90;;;34.17;;
32333;SDS011;18810;53.040;8.850;2023-04-23T07:56:35;49.15;;;32.35;;
32333;SDS011;18810;53.040;8.850;2023-04-23T07:59:01;47.00;;;31.10;;
32333;SDS011;18810;53.040;8.850;2023-04-23T08:01:28;51.80;;;32.50;;
32333;SDS011;18810;53.040;8.850;2023-04-23T08:03:54;52.35;;;33.70;;
32333;SDS011;18810;53.040;8.850;2023-04-23T08:06:20;48.90;;;32.78;;
32333;SDS011;18810;53.040;8.850;2023-04-23T08:08:48;49.17;;;30.40;;
32333;SDS011;18810;53.040;8.850;2023-04-23T08:11:14;43.05;;;28.90;;
32333;SDS011;18810;53.040;8.850;2023-04-23T08:13:40;44.90;;;29.38;;
32333;SDS011;18810;53.040;8.850;2023-04-23T08:16:06;44.88;;;29.33;;
32333;SDS011;18810;53.040;8.850;2023-04-23T08:18:32;45.03;;;27.85;;
32333;SDS011;18810;53.040;8.850;2023-04-23T08:20:58;41.67;;;27.55;;
32333;SDS011;18810;53.040;8.850;2023-04-23T08:23:23;43.40;;;28.48;;
32333;SDS011;18810;53.040;8.850;2023-04-23T08:25:49;38.55;;;26.85;;
32333;SDS011;18810;53.040;8.850;2023-04-23T08:28:16;41.30;;;26.38;;
32333;SDS011;18810;53.040;8.850;2023-04-23T08:30:42;43.92;;;28.27;;
32333;SDS011;18810;53.040;8.850;2023-04-23T08:33:08;38.70;;;26.80;;
32333;SDS011;18810;53.040;8.850;2023-04-23T08:35:33;41.28;;;26.10;;
32333;SDS011;18810;53.040;8.850;2023-04-23T08:37:59;34.80;;;24.23;;
32333;SDS011;18810;53.040;8.850;2023-04-23T08:40:26;34.10;;;24.55;;
32333;SDS011;18810;53.040;8.850;2023-04-23T08:43:02;39.80;;;25.55;;
32333;SDS011;18810;53.040;8.850;2023-04-23T08:45:33;35.80;;;24.83;;
32333;SDS011;18810;53.040;8.850;2023-04-23T08:48:05;32.40;;;22.90;;
32333;SDS011;18810;53.040;8.850;2023-04-23T08:50:31;32.78;;;23.38;;
32333;SDS011;18810;53.040;8.850;2023-04-23T08:52:59;28.70;;;20.70;;
32333;SDS011;18810;53.040;8.850;2023-04-23T08:55:28;27.70;;;20.33;;
32333;SDS011;18810;53.040;8.850;2023-04-23T08:57:54;30.58;;;21.88;;
32333;SDS011;18810;53.040;8.850;2023-04-23T09:00:22;30.85;;;22.52;;
32333;SDS011;18810;53.040;8.850;2023-04-23T09:02:49;31.40;;;22.55;;
32333;SDS011;18810;53.040;8.850;2023-04-23T09:05:15;29.42;;;21.10;;
32333;SDS011;18810;53.040;8.850;2023-04-23T09:07:41;27.23;;;19.60;;
32333;SDS011;18810;53.040;8.850;2023-04-23T09:10:08;23.20;;;17.17;;
32333;SDS011;18810;53.040;8.850;2023-04-23T09:12:36;23.25;;;16.67;;
32333;SDS011;18810;53.040;8.850;2023-04-23T09:15:05;26.85;;;20.00;;
32333;SDS011;18810;53.040;8.850;2023-04-23T09:17:37;26.80;;;18.83;;
32333;SDS011;18810;53.040;8.850;2023-04-23T09:20:03;28.80;;;20.02;;
32333;SDS011;18810;53.040;8.850;2023-04-23T09:25:30;25.17;;;18.38;;
32333;SDS011;18810;53.040;8.850;2023-04-23T09:28:00;24.40;;;17.88;;
32333;SDS011;18810;53.040;8.850;2023-04-23T09:30:27;21.42;;;16.48;;
32333;SDS011;18810;53.040;8.850;2023-04-23T09:32:53;21.30;;;16.17;;
32333;SDS011;18810;53.040;8.850;2023-04-23T09:35:19;22.75;;;17.70;;
32333;SDS011;18810;53.040;8.850;2023-04-23T09:37:45;24.60;;;17.80;;
32333;SDS011;18810;53.040;8.850;2023-04-23T09:40:17;23.58;;;18.13;;
32333;SDS011;18810;53.040;8.850;2023-04-23T09:42:49;19.58;;;15.95;;
32333;SDS011;18810;53.040;8.850;2023-04-23T09:45:19;23.48;;;18.48;;
32333;SDS011;18810;53.040;8.850;2023-04-23T09:47:57;24.58;;;17.88;;
32333;SDS011;18810;53.040;8.850;2023-04-23T09:50:33;23.77;;;18.27;;
32333;SDS011;18810;53.040;8.850;2023-04-23T09:53:01;25.20;;;18.90;;
32333;SDS011;18810;53.040;8.850;2023-04-23T09:55:31;26.67;;;19.38;;
32333;SDS011;18810;53.040;8.850;2023-04-23T09:58:05;26.10;;;19.23;;
32333;SDS011;18810;53.040;8.850;2023-04-23T10:00:35;25.47;;;19.17;;
32333;SDS011;18810;53.040;8.850;2023-04-23T10:03:02;25.63;;;18.52;;
32333;SDS011;18810;53.040;8.850;2023-04-23T10:05:28;21.88;;;17.58;;
32333;SDS011;18810;53.040;8.850;2023-04-23T10:07:55;26.25;;;18.90;;
32333;SDS011;18810;53.040;8.850;2023-04-23T10:10:24;21.50;;;16.50;;
32333;SDS011;18810;53.040;8.850;2023-04-23T10:12:50;19.35;;;15.82;;
32333;SDS011;18810;53.040;8.850;2023-04-23T10:15:22;22.38;;;16.23;;
32333;SDS011;18810;53.040;8.850;2023-04-23T10:17:51;21.10;;;15.73;;
32333;SDS011;18810;53.040;8.850;2023-04-23T10:20:17;18.80;;;15.32;;
32333;SDS011;18810;53.040;8.850;2023-04-23T10:22:46;20.42;;;15.70;;
32333;SDS011;18810;53.040;8.850;2023-04-23T10:25:12;16.27;;;13.35;;
32333;SDS011;18810;53.040;8.850;2023-04-23T10:27:42;19.05;;;15.35;;
32333;SDS011;18810;53.040;8.850;2023-04-23T10:30:11;16.05;;;13.25;;
32333;SDS011;18810;53.040;8.850;2023-04-23T10:32:38;19.23;;;15.57;;
32333;SDS011;18810;53.040;8.850;2023-04-23T10:35:06;20.63;;;15.38;;
32333;SDS011;18810;53.040;8.850;2023-04-23T10:37:33;17.65;;;14.93;;
32333;SDS011;18810;53.040;8.850;2023-04-23T10:40:33;18.05;;;14.82;;
32333;SDS011;18810;53.040;8.850;2023-04-23T10:42:56;20.65;;;16.02;;
32333;SDS011;18810;53.040;8.850;2023-04-23T10:45:23;19.83;;;15.32;;
32333;SDS011;18810;53.040;8.850;2023-04-23T10:47:49;21.33;;;16.83;;
32333;SDS011;18810;53.040;8.850;2023-04-23T10:52:47;17.95;;;14.88;;
32333;SDS011;18810;53.040;8.850;2023-04-23T10:55:27;20.27;;;15.80;;
32333;SDS011;18810;53.040;8.850;2023-04-23T10:58:05;20.77;;;15.75;;
32333;SDS011;18810;53.040;8.850;2023-04-23T11:03:35;23.30;;;18.45;;
32333;SDS011;18810;53.040;8.850;2023-04-23T11:06:07;21.83;;;17.33;;
32333;SDS011;18810;53.040;8.850;2023-04-23T11:08:36;25.52;;;20.13;;
32333;SDS011;18810;53.040;8.850;2023-04-23T11:11:06;24.90;;;18.67;;
32333;SDS011;18810;53.040;8.850;2023-04-23T11:13:32;24.67;;;19.30;;
32333;SDS011;18810;53.040;8.850;2023-04-23T11:21:54;22.35;;;16.15;;
32333;SDS011;18810;53.040;8.850;2023-04-23T11:24:21;23.08;;;16.60;;
32333;SDS011;18810;53.040;8.850;2023-04-23T11:26:50;19.75;;;14.55;;
32333;SDS011;18810;53.040;8.850;2023-04-23T11:29:18;21.80;;;16.23;;
32333;SDS011;18810;53.040;8.850;2023-04-23T11:31:47;22.55;;;16.65;;
32333;SDS011;18810;53.040;8.850;2023-04-23T11:34:13;20.63;;;14.80;;
32333;SDS011;18810;53.040;8.850;2023-04-23T11:36:39;19.48;;;15.15;;
32333;SDS011;18810;53.040;8.850;2023-04-23T11:39:05;17.23;;;13.93;;
32333;SDS011;18810;53.040;8.850;2023-04-23T11:41:32;19.52;;;14.23;;
32333;SDS011;18810;53.040;8.850;2023-04-23T11:43:59;17.38;;;14.07;;
32333;SDS011;18810;53.040;8.850;2023-04-23T11:46:24;17.17;;;13.63;;
32333;SDS011;18810;53.040;8.850;2023-04-23T11:48:50;18.00;;;14.45;;
32333;SDS011;18810;53.040;8.850;2023-04-23T11:51:16;19.50;;;14.35;;
32333;SDS011;18810;53.040;8.850;2023-04-23T11:53:48;17.40;;;15.10;;
32333;SDS011;18810;53.040;8.850;2023-04-23T11:56:16;19.20;;;14.52;;
32333;SDS011;18810;53.040;8.850;2023-04-23T11:58:44;18.90;;;13.52;;
32333;SDS011;18810;53.040;8.850;2023-04-23T12:01:10;20.63;;;13.88;;
32333;SDS011;18810;53.040;8.850;2023-04-23T12:03:38;20.70;;;14.18;;
32333;SDS011;18810;53.040;8.850;2023-04-23T12:06:04;15.68;;;13.20;;
32333;SDS011;18810;53.040;8.850;2023-04-23T12:08:32;16.05;;;13.48;;
32333;SDS011;18810;53.040;8.850;2023-04-23T12:11:04;18.95;;;15.15;;
32333;SDS011;18810;53.040;8.850;2023-04-23T12:13:31;25.42;;;16.70;;
32333;SDS011;18810;53.040;8.850;2023-04-23T12:16:01;20.23;;;16.63;;
32333;SDS011;18810;53.040;8.850;2023-04-23T12:18:29;18.42;;;15.00;;
32333;SDS011;18810;53.040;8.850;2023-04-23T12:21:06;21.35;;;15.05;;
32333;SDS011;18810;53.040;8.850;2023-04-23T12:23:36;16.48;;;13.20;;
32333;SDS011;18810;53.040;8.850;2023-04-23T12:26:03;16.10;;;13.48;;
32333;SDS011;18810;53.040;8.850;2023-04-23T12:28:34;18.85;;;12.55;;
32333;SDS011;18810;53.040;8.850;2023-04-23T12:31:23;16.65;;;13.05;;
32333;SDS011;18810;53.040;8.850;2023-04-23T12:34:03;18.85;;;12.98;;
32333;SDS011;18810;53.040;8.850;2023-04-23T12:36:30;18.33;;;12.98;;
32333;SDS011;18810;53.040;8.850;2023-04-23T12:41:53;17.05;;;13.48;;
32333;SDS011;18810;53.040;8.850;2023-04-23T12:44:28;18.15;;;12.43;;
32333;SDS011;18810;53.040;8.850;2023-04-23T12:46:59;22.75;;;16.00;;
32333;SDS011;18810;53.040;8.850;2023-04-23T12:49:29;21.30;;;16.55;;
32333;SDS011;18810;53.040;8.850;2023-04-23T12:51:55;20.42;;;13.85;;
32333;SDS011;18810;53.040;8.850;2023-04-23T12:54:24;8.18;;;6.40;;
32333;SDS011;18810;53.040;8.850;2023-04-23T12:56:52;7.13;;;5.05;;
32333;SDS011;18810;53.040;8.850;2023-04-23T12:59:18;7.55;;;5.95;;
32333;SDS011;18810;53.040;8.850;2023-04-23T13:01:43;7.97;;;6.22;;
32333;SDS011;18810;53.040;8.850;2023-04-23T13:04:09;6.78;;;5.75;;
32333;SDS011;18810;53.040;8.850;2023-04-23T13:06:35;5.85;;;5.20;;
32333;SDS011;18810;53.040;8.850;2023-04-23T13:09:00;9.15;;;6.65;;
32333;SDS011;18810;53.040;8.850;2023-04-23T13:11:29;8.02;;;5.90;;
32333;SDS011;18810;53.040;8.850;2023-04-23T13:13:56;6.70;;;4.82;;
32333;SDS011;18810;53.040;8.850;2023-04-23T13:16:21;6.15;;;5.20;;
32333;SDS011;18810;53.040;8.850;2023-04-23T13:18:47;7.80;;;5.70;;
32333;SDS011;18810;53.040;8.850;2023-04-23T13:21:15;8.25;;;6.75;;
32333;SDS011;18810;53.040;8.850;2023-04-23T13:23:41;7.53;;;6.65;;
32333;SDS011;18810;53.040;8.850;2023-04-23T13:26:06;10.35;;;6.68;;
32333;SDS011;18810;53.040;8.850;2023-04-23T13:28:33;8.32;;;7.15;;
32333;SDS011;18810;53.040;8.850;2023-04-23T13:30:59;8.35;;;6.70;;
32333;SDS011;18810;53.040;8.850;2023-04-23T13:33:25;7.38;;;6.68;;
32333;SDS011;18810;53.040;8.850;2023-04-23T13:35:51;8.70;;;6.93;;
32333;SDS011;18810;53.040;8.850;2023-04-23T13:38:18;11.68;;;7.00;;
32333;SDS011;18810;53.040;8.850;2023-04-23T13:40:44;7.63;;;6.53;;
32333;SDS011;18810;53.040;8.850;2023-04-23T13:43:09;11.40;;;8.05;;
32333;SDS011;18810;53.040;8.850;2023-04-23T13:45:35;9.85;;;8.23;;
32333;SDS011;18810;53.040;8.850;2023-04-23T13:48:01;9.93;;;8.70;;
32333;SDS011;18810;53.040;8.850;2023-04-23T13:50:27;10.82;;;8.98;;
32333;SDS011;18810;53.040;8.850;2023-04-23T13:52:53;8.85;;;7.97;;
32333;SDS011;18810;53.040;8.850;2023-04-23T13:55:19;9.63;;;8.27;;
32333;SDS011;18810;53.040;8.850;2023-04-23T13:57:44;9.80;;;7.45;;
32333;SDS011;18810;53.040;8.850;2023-04-23T14:00:10;10.30;;;7.78;;
32333;SDS011;18810;53.040;8.850;2023-04-23T14:02:36;8.98;;;7.57;;
32333;SDS011;18810;53.040;8.850;2023-04-23T14:05:02;8.82;;;7.43;;
32333;SDS011;18810;53.040;8.850;2023-04-23T14:07:30;8.15;;;7.32;;
32333;SDS011;18810;53.040;8.850;2023-04-23T14:09:56;8.43;;;6.93;;
32333;SDS011;18810;53.040;8.850;2023-04-23T14:12:22;8.85;;;6.55;;
32333;SDS011;18810;53.040;8.850;2023-04-23T14:14:50;8.57;;;7.05;;
32333;SDS011;18810;53.040;8.850;2023-04-23T14:17:16;9.70;;;7.55;;
32333;SDS011;18810;53.040;8.850;2023-04-23T14:19:42;8.20;;;6.72;;
32333;SDS011;18810;53.040;8.850;2023-04-23T14:22:07;9.23;;;7.18;;
32333;SDS011;18810;53.040;8.850;2023-04-23T14:24:33;7.38;;;6.53;;
32333;SDS011;18810;53.040;8.850;2023-04-23T14:29:33;8.23;;;7.13;;
32333;SDS011;18810;53.040;8.850;2023-04-23T14:32:03;9.88;;;7.50;;
32333;SDS011;18810;53.040;8.850;2023-04-23T14:34:30;8.82;;;7.28;;
32333;SDS011;18810;53.040;8.850;2023-04-23T14:36:56;10.35;;;7.80;;
32333;SDS011;18810;53.040;8.850;2023-04-23T14:39:21;8.32;;;7.45;;
32333;SDS011;18810;53.040;8.850;2023-04-23T14:41:49;8.57;;;7.57;;
32333;SDS011;18810;53.040;8.850;2023-04-23T14:44:15;7.97;;;7.18;;